sensor_id;sensor_type;location;lat;lon;timestamp;pressure;altitude;pressure_sealevel;temperature;humidity
57847;BME280;43675;50.030;21.952;2022-11-20T00:01:26;98522.84;;;-4.00;74.74
57847;BME280;43675;50.030;21.952;2022-11-20T00:03:53;98512.72;;;-3.99;74.73
57847;BME280;43675;50.030;21.952;2022-11-20T00:06:21;98516.89;;;-3.96;74.69
57847;BME280;43675;50.030;21.952;2022-11-20T00:08:47;98516.89;;;-3.96;74.63
57847;BME280;43675;50.030;21.952;2022-11-20T00:13:42;98515.43;;;-3.95;74.53
57847;BME280;43675;50.030;21.952;2022-11-20T00:16:10;98523.45;;;-3.96;74.48
57847;BME280;43675;50.030;21.952;2022-11-20T00:18:36;98520.47;;;-3.97;74.48
57847;BME280;43675;50.030;21.952;2022-11-20T00:21:07;98507.95;;;-3.99;74.56
57847;BME280;43675;50.030;21.952;2022-11-20T00:23:34;98512.35;;;-4.00;74.60
57847;BME280;43675;50.030;21.952;2022-11-20T00:26:04;98512.14;;;-4.02;74.68
57847;BME280;43675;50.030;21.952;2022-11-20T00:28:30;98512.14;;;-4.02;74.73
57847;BME280;43675;50.030;21.952;2022-11-20T00:31:15;98511.45;;;-4.04;74.73
57847;BME280;43675;50.030;21.952;2022-11-20T00:33:38;98505.84;;;-4.05;74.74
57847;BME280;43675;50.030;21.952;2022-11-20T00:36:05;98506.11;;;-4.08;74.79
57847;BME280;43675;50.030;21.952;2022-11-20T00:38:37;98510.52;;;-4.09;74.83
57847;BME280;43675;50.030;21.952;2022-11-20T00:41:05;98522.80;;;-4.15;74.80
57847;BME280;43675;50.030;21.952;2022-11-20T00:43:32;98521.00;;;-4.09;74.78
57847;BME280;43675;50.030;21.952;2022-11-20T00:46:00;98521.48;;;-4.09;74.81
57847;BME280;43675;50.030;21.952;2022-11-20T00:48:33;98515.88;;;-4.10;74.87
57847;BME280;43675;50.030;21.952;2022-11-20T00:50:59;98504.22;;;-4.12;74.96
57847;BME280;43675;50.030;21.952;2022-11-20T00:53:25;98509.32;;;-4.10;75.00
57847;BME280;43675;50.030;21.952;2022-11-20T00:56:00;98501.81;;;-4.09;75.08
57847;BME280;43675;50.030;21.952;2022-11-20T00:58:29;98503.02;;;-4.08;75.11
57847;BME280;43675;50.030;21.952;2022-11-20T01:01:05;98497.77;;;-4.08;75.15
57847;BME280;43675;50.030;21.952;2022-11-20T01:03:30;98500.72;;;-4.07;75.12
57847;BME280;43675;50.030;21.952;2022-11-20T01:06:04;98502.03;;;-4.07;75.13
57847;BME280;43675;50.030;21.952;2022-11-20T01:08:33;98494.53;;;-4.06;75.13
57847;BME280;43675;50.030;21.952;2022-11-20T01:11:01;98491.08;;;-4.06;75.15
57847;BME280;43675;50.030;21.952;2022-11-20T01:13:27;98488.81;;;-4.05;75.20
57847;BME280;43675;50.030;21.952;2022-11-20T01:15:52;98492.27;;;-4.05;75.22
57847;BME280;43675;50.030;21.952;2022-11-20T01:18:18;98499.03;;;-4.02;75.25
57847;BME280;43675;50.030;21.952;2022-11-20T01:20:44;98503.54;;;-3.99;75.26
57847;BME280;43675;50.030;21.952;2022-11-20T01:23:09;98517.22;;;-3.95;75.26
57847;BME280;43675;50.030;21.952;2022-11-20T01:25:35;98517.47;;;-3.93;75.24
57847;BME280;43675;50.030;21.952;2022-11-20T01:28:00;98511.95;;;-3.90;75.26
57847;BME280;43675;50.030;21.952;2022-11-20T01:30:26;98510.74;;;-3.86;75.26
57847;BME280;43675;50.030;21.952;2022-11-20T01:32:58;98505.71;;;-3.83;75.28
57847;BME280;43675;50.030;21.952;2022-11-20T01:35:24;98498.68;;;-3.83;75.24
57847;BME280;43675;50.030;21.952;2022-11-20T01:37:50;98503.33;;;-3.80;75.17
57847;BME280;43675;50.030;21.952;2022-11-20T01:40:16;98501.19;;;-3.81;75.13
57847;BME280;43675;50.030;21.952;2022-11-20T01:42:52;98500.35;;;-3.82;75.09
57847;BME280;43675;50.030;21.952;2022-11-20T01:48:28;98498.59;;;-3.87;75.00
57847;BME280;43675;50.030;21.952;2022-11-20T01:51:01;98505.69;;;-3.98;75.12
57847;BME280;43675;50.030;21.952;2022-11-20T01:53:31;98509.25;;;-3.99;75.14
57847;BME280;43675;50.030;21.952;2022-11-20T01:56:07;98507.62;;;-4.00;75.11
57847;BME280;43675;50.030;21.952;2022-11-20T01:58:35;98500.23;;;-4.01;75.11
57847;BME280;43675;50.030;21.952;2022-11-20T02:01:03;98499.98;;;-4.03;75.08
57847;BME280;43675;50.030;21.952;2022-11-20T02:03:29;98501.44;;;-4.05;75.07
57847;BME280;43675;50.030;21.952;2022-11-20T02:06:10;98501.56;;;-4.06;75.03
57847;BME280;43675;50.030;21.952;2022-11-20T02:08:32;98494.17;;;-4.07;75.04
57847;BME280;43675;50.030;21.952;2022-11-20T02:10:58;98493.48;;;-4.09;75.13
57847;BME280;43675;50.030;21.952;2022-11-20T02:13:24;98482.16;;;-4.09;75.20
57847;BME280;43675;50.030;21.952;2022-11-20T02:15:50;98488.23;;;-4.09;75.26
57847;BME280;43675;50.030;21.952;2022-11-20T02:18:18;98478.80;;;-4.06;75.31
57847;BME280;43675;50.030;21.952;2022-11-20T02:20:46;98478.33;;;-4.05;75.36
57847;BME280;43675;50.030;21.952;2022-11-20T02:25:48;98471.16;;;-4.03;75.40
57847;BME280;43675;50.030;21.952;2022-11-20T02:28:16;98463.55;;;-4.06;75.39
57847;BME280;43675;50.030;21.952;2022-11-20T02:30:42;98460.94;;;-4.06;75.34
57847;BME280;43675;50.030;21.952;2022-11-20T02:33:07;98466.17;;;-4.06;75.28
57847;BME280;43675;50.030;21.952;2022-11-20T02:35:45;98462.24;;;-4.06;75.35
57847;BME280;43675;50.030;21.952;2022-11-20T02:38:11;98460.09;;;-4.07;75.36
57847;BME280;43675;50.030;21.952;2022-11-20T02:40:38;98454.28;;;-4.10;75.34
57847;BME280;43675;50.030;21.952;2022-11-20T02:43:04;98454.44;;;-4.12;75.30
57847;BME280;43675;50.030;21.952;2022-11-20T02:45:29;98451.45;;;-4.13;75.29
57847;BME280;43675;50.030;21.952;2022-11-20T02:47:55;98455.97;;;-4.15;75.32
57847;BME280;43675;50.030;21.952;2022-11-20T02:50:21;98453.97;;;-4.17;75.30
57847;BME280;43675;50.030;21.952;2022-11-20T02:52:46;98462.43;;;-4.19;75.27
57847;BME280;43675;50.030;21.952;2022-11-20T02:55:19;98459.12;;;-4.21;75.24
57847;BME280;43675;50.030;21.952;2022-11-20T02:57:51;98461.64;;;-4.25;75.16
57847;BME280;43675;50.030;21.952;2022-11-20T03:00:17;98458.81;;;-4.27;75.17
57847;BME280;43675;50.030;21.952;2022-11-20T03:02:42;98461.80;;;-4.32;75.23
57847;BME280;43675;50.030;21.952;2022-11-20T03:05:08;98465.84;;;-4.34;75.21
57847;BME280;43675;50.030;21.952;2022-11-20T03:07:34;98468.36;;;-4.38;75.17
57847;BME280;43675;50.030;21.952;2022-11-20T03:09:59;98476.58;;;-4.37;75.13
57847;BME280;43675;50.030;21.952;2022-11-20T03:12:25;98470.77;;;-4.40;75.14
57847;BME280;43675;50.030;21.952;2022-11-20T03:14:50;98469.57;;;-4.42;75.13
57847;BME280;43675;50.030;21.952;2022-11-20T03:17:16;98464.81;;;-4.42;75.23
57847;BME280;43675;50.030;21.952;2022-11-20T03:19:42;98453.86;;;-4.42;75.24
57847;BME280;43675;50.030;21.952;2022-11-20T03:22:14;98450.07;;;-4.43;75.24
57847;BME280;43675;50.030;21.952;2022-11-20T03:24:40;98453.64;;;-4.44;75.24
57847;BME280;43675;50.030;21.952;2022-11-20T03:27:06;98453.64;;;-4.44;75.24
57847;BME280;43675;50.030;21.952;2022-11-20T03:29:32;98455.42;;;-4.45;75.33
57847;BME280;43675;50.030;21.952;2022-11-20T03:31:58;98454.69;;;-4.41;75.43
57847;BME280;43675;50.030;21.952;2022-11-20T03:34:23;98460.03;;;-4.37;75.52
57847;BME280;43675;50.030;21.952;2022-11-20T03:36:49;98453.11;;;-4.33;75.54
57847;BME280;43675;50.030;21.952;2022-11-20T03:39:15;98451.06;;;-4.29;75.55
57847;BME280;43675;50.030;21.952;2022-11-20T03:41:41;98445.70;;;-4.27;75.48
57847;BME280;43675;50.030;21.952;2022-11-20T03:44:09;98436.75;;;-4.25;75.36
57847;BME280;43675;50.030;21.952;2022-11-20T03:46:35;98433.77;;;-4.26;75.19
57847;BME280;43675;50.030;21.952;2022-11-20T03:49:01;98421.52;;;-4.31;75.04
57847;BME280;43675;50.030;21.952;2022-11-20T03:51:33;98417.86;;;-4.34;75.06
57847;BME280;43675;50.030;21.952;2022-11-20T03:54:02;98418.00;;;-4.36;75.14
57847;BME280;43675;50.030;21.952;2022-11-20T03:56:29;98414.81;;;-4.39;75.18
57847;BME280;43675;50.030;21.952;2022-11-20T03:59:03;98419.33;;;-4.41;75.17
57847;BME280;43675;50.030;21.952;2022-11-20T04:01:31;98423.37;;;-4.43;75.18
57847;BME280;43675;50.030;21.952;2022-11-20T04:03:58;98418.18;;;-4.48;75.17
57847;BME280;43675;50.030;21.952;2022-11-20T04:06:29;98413.89;;;-4.49;75.17
57847;BME280;43675;50.030;21.952;2022-11-20T04:09:02;98410.22;;;-4.52;75.12
57847;BME280;43675;50.030;21.952;2022-11-20T04:11:30;98403.22;;;-4.57;75.17
57847;BME280;43675;50.030;21.952;2022-11-20T04:13:59;98400.75;;;-4.59;75.23
57847;BME280;43675;50.030;21.952;2022-11-20T04:16:26;98401.22;;;-4.59;75.19
57847;BME280;43675;50.030;21.952;2022-11-20T04:18:55;98397.66;;;-4.64;75.23
57847;BME280;43675;50.030;21.952;2022-11-20T04:21:21;98396.00;;;-4.65;75.34
57847;BME280;43675;50.030;21.952;2022-11-20T04:23:48;98411.23;;;-4.64;75.38
57847;BME280;43675;50.030;21.952;2022-11-20T04:26:14;98413.48;;;-4.65;75.34
57847;BME280;43675;50.030;21.952;2022-11-20T04:28:40;98413.27;;;-4.68;75.32
57847;BME280;43675;50.030;21.952;2022-11-20T04:31:14;98419.46;;;-4.69;75.25
57847;BME280;43675;50.030;21.952;2022-11-20T04:33:41;98415.42;;;-4.73;75.19
57847;BME280;43675;50.030;21.952;2022-11-20T04:36:15;98413.54;;;-4.77;75.23
57847;BME280;43675;50.030;21.952;2022-11-20T04:38:42;98418.89;;;-4.78;75.31
57847;BME280;43675;50.030;21.952;2022-11-20T04:41:14;98418.31;;;-4.82;75.30
57847;BME280;43675;50.030;21.952;2022-11-20T04:43:37;98409.88;;;-4.85;75.26
57847;BME280;43675;50.030;21.952;2022-11-20T04:46:03;98408.72;;;-4.87;75.20
57847;BME280;43675;50.030;21.952;2022-11-20T04:48:29;98402.28;;;-4.88;75.23
57847;BME280;43675;50.030;21.952;2022-11-20T04:50:55;98408.94;;;-4.90;75.34
57847;BME280;43675;50.030;21.952;2022-11-20T04:53:22;98410.25;;;-4.90;75.37
57847;BME280;43675;50.030;21.952;2022-11-20T04:55:49;98403.02;;;-4.92;75.26
57847;BME280;43675;50.030;21.952;2022-11-20T04:58:15;98401.59;;;-4.96;75.05
57847;BME280;43675;50.030;21.952;2022-11-20T05:00:47;98408.66;;;-5.02;74.89
57847;BME280;43675;50.030;21.952;2022-11-20T05:03:20;98409.48;;;-5.07;74.79
57847;BME280;43675;50.030;21.952;2022-11-20T05:05:45;98411.16;;;-5.17;74.71
57847;BME280;43675;50.030;21.952;2022-11-20T05:08:11;98412.50;;;-5.22;74.73
57847;BME280;43675;50.030;21.952;2022-11-20T05:10:37;98418.79;;;-5.25;74.83
57847;BME280;43675;50.030;21.952;2022-11-20T05:13:02;98421.66;;;-5.28;74.93
57847;BME280;43675;50.030;21.952;2022-11-20T05:15:28;98424.27;;;-5.28;74.96
57847;BME280;43675;50.030;21.952;2022-11-20T05:17:54;98434.27;;;-5.28;75.00
57847;BME280;43675;50.030;21.952;2022-11-20T05:20:25;98437.35;;;-5.28;75.06
57847;BME280;43675;50.030;21.952;2022-11-20T05:22:51;98436.52;;;-5.29;75.23
57847;BME280;43675;50.030;21.952;2022-11-20T05:25:17;98442.70;;;-5.24;75.36
57847;BME280;43675;50.030;21.952;2022-11-20T05:27:43;98447.34;;;-5.22;75.37
57847;BME280;43675;50.030;21.952;2022-11-20T05:30:09;98442.81;;;-5.20;75.35
57847;BME280;43675;50.030;21.952;2022-11-20T05:32:35;98431.41;;;-5.19;75.31
57847;BME280;43675;50.030;21.952;2022-11-20T05:35:01;98420.94;;;-5.19;75.29
57847;BME280;43675;50.030;21.952;2022-11-20T05:37:27;98408.80;;;-5.20;75.28
57847;BME280;43675;50.030;21.952;2022-11-20T05:39:59;98413.56;;;-5.19;75.32
57847;BME280;43675;50.030;21.952;2022-11-20T05:42:25;98412.72;;;-5.20;75.31
57847;BME280;43675;50.030;21.952;2022-11-20T05:44:50;98410.11;;;-5.20;75.38
57847;BME280;43675;50.030;21.952;2022-11-20T05:47:16;98399.06;;;-5.18;75.52
57847;BME280;43675;50.030;21.952;2022-11-20T05:49:41;98408.91;;;-5.16;75.65
57847;BME280;43675;50.030;21.952;2022-11-20T05:52:07;98415.56;;;-5.12;75.63
57847;BME280;43675;50.030;21.952;2022-11-20T05:54:33;98415.09;;;-5.11;75.47
57847;BME280;43675;50.030;21.952;2022-11-20T05:56:58;98410.58;;;-5.15;75.34
57847;BME280;43675;50.030;21.952;2022-11-20T05:59:31;98416.28;;;-5.15;75.42
57847;BME280;43675;50.030;21.952;2022-11-20T06:01:57;98411.89;;;-5.15;75.48
57847;BME280;43675;50.030;21.952;2022-11-20T06:04:23;98416.76;;;-5.16;75.45
57847;BME280;43675;50.030;21.952;2022-11-20T06:06:56;98420.69;;;-5.16;75.32
57847;BME280;43675;50.030;21.952;2022-11-20T06:09:21;98413.09;;;-5.19;75.32
57847;BME280;43675;50.030;21.952;2022-11-20T06:11:54;98420.94;;;-5.19;75.36
57847;BME280;43675;50.030;21.952;2022-11-20T06:14:19;98424.50;;;-5.20;75.39
57847;BME280;43675;50.030;21.952;2022-11-20T06:16:45;98407.86;;;-5.19;75.40
57847;BME280;43675;50.030;21.952;2022-11-20T06:19:11;98391.55;;;-5.17;75.39
57847;BME280;43675;50.030;21.952;2022-11-20T06:21:36;98389.29;;;-5.16;75.46
57847;BME280;43675;50.030;21.952;2022-11-20T06:24:02;98392.02;;;-5.12;75.58
57847;BME280;43675;50.030;21.952;2022-11-20T06:26:30;98393.06;;;-5.09;75.60
57847;BME280;43675;50.030;21.952;2022-11-20T06:28:56;98395.31;;;-5.04;75.54
57847;BME280;43675;50.030;21.952;2022-11-20T06:31:23;98404.36;;;-5.03;75.58
57847;BME280;43675;50.030;21.952;2022-11-20T06:33:50;98409.70;;;-4.99;75.64
57847;BME280;43675;50.030;21.952;2022-11-20T06:36:18;98414.21;;;-4.95;75.56
57847;BME280;43675;50.030;21.952;2022-11-20T06:38:45;98425.27;;;-4.92;75.63
57847;BME280;43675;50.030;21.952;2022-11-20T06:41:14;98427.95;;;-4.82;75.79
57847;BME280;43675;50.030;21.952;2022-11-20T06:43:40;98419.61;;;-4.70;75.92
57847;BME280;43675;50.030;21.952;2022-11-20T06:46:06;98417.50;;;-4.56;76.05
57847;BME280;43675;50.030;21.952;2022-11-20T06:48:32;98429.28;;;-4.35;76.15
57847;BME280;43675;50.030;21.952;2022-11-20T06:50:58;98421.34;;;-4.18;76.16
57847;BME280;43675;50.030;21.952;2022-11-20T06:53:24;98415.25;;;-3.98;76.21
57847;BME280;43675;50.030;21.952;2022-11-20T06:55:51;98403.42;;;-3.77;76.25
57847;BME280;43675;50.030;21.952;2022-11-20T06:58:17;98400.41;;;-3.58;76.21
57847;BME280;43675;50.030;21.952;2022-11-20T07:00:50;98381.26;;;-3.39;76.20
57847;BME280;43675;50.030;21.952;2022-11-20T07:03:15;98378.67;;;-3.20;76.19
57847;BME280;43675;50.030;21.952;2022-11-20T07:05:47;98380.84;;;-3.00;76.22
57847;BME280;43675;50.030;21.952;2022-11-20T07:08:19;98379.54;;;-2.81;76.24
57847;BME280;43675;50.030;21.952;2022-11-20T07:10:45;98380.02;;;-2.62;76.15
57847;BME280;43675;50.030;21.952;2022-11-20T07:13:10;98384.77;;;-2.43;76.10
57847;BME280;43675;50.030;21.952;2022-11-20T07:15:43;98379.16;;;-2.24;76.04
57847;BME280;43675;50.030;21.952;2022-11-20T07:18:09;98382.70;;;-2.06;75.97
57847;BME280;43675;50.030;21.952;2022-11-20T07:20:35;98370.14;;;-1.89;75.88
57847;BME280;43675;50.030;21.952;2022-11-20T07:23:00;98371.51;;;-1.71;75.84
57847;BME280;43675;50.030;21.952;2022-11-20T07:25:27;98368.95;;;-1.54;75.76
57847;BME280;43675;50.030;21.952;2022-11-20T07:27:58;98355.98;;;-1.37;75.63
57847;BME280;43675;50.030;21.952;2022-11-20T07:30:24;98361.41;;;-1.21;75.50
57847;BME280;43675;50.030;21.952;2022-11-20T07:32:56;98363.90;;;-1.06;75.40
57847;BME280;43675;50.030;21.952;2022-11-20T07:35:23;98371.27;;;-0.92;75.25
57847;BME280;43675;50.030;21.952;2022-11-20T07:37:49;98374.03;;;-0.80;75.12
57847;BME280;43675;50.030;21.952;2022-11-20T07:40:17;98364.58;;;-0.69;74.93
57847;BME280;43675;50.030;21.952;2022-11-20T07:42:51;98371.76;;;-0.57;74.75
57847;BME280;43675;50.030;21.952;2022-11-20T07:45:18;98364.89;;;-0.50;74.54
57847;BME280;43675;50.030;21.952;2022-11-20T07:47:44;98367.91;;;-0.45;74.46
57847;BME280;43675;50.030;21.952;2022-11-20T07:50:10;98364.16;;;-0.38;74.34
57847;BME280;43675;50.030;21.952;2022-11-20T07:52:36;98349.06;;;-0.32;74.26
57847;BME280;43675;50.030;21.952;2022-11-20T07:55:01;98352.88;;;-0.27;74.17
57847;BME280;43675;50.030;21.952;2022-11-20T07:57:27;98363.45;;;-0.23;73.98
57847;BME280;43675;50.030;21.952;2022-11-20T07:59:53;98360.84;;;-0.19;73.92
57847;BME280;43675;50.030;21.952;2022-11-20T08:02:18;98359.38;;;-0.17;73.78
57847;BME280;43675;50.030;21.952;2022-11-20T08:04:44;98363.51;;;-0.15;73.66
57847;BME280;43675;50.030;21.952;2022-11-20T08:07:19;98359.06;;;-0.14;73.54
57847;BME280;43675;50.030;21.952;2022-11-20T08:09:51;98344.91;;;-0.13;73.57
57847;BME280;43675;50.030;21.952;2022-11-20T08:12:20;98336.19;;;-0.10;73.63
57847;BME280;43675;50.030;21.952;2022-11-20T08:14:46;98337.88;;;-0.05;73.62
57847;BME280;43675;50.030;21.952;2022-11-20T08:17:12;98338.73;;;0.00;73.62
57847;BME280;43675;50.030;21.952;2022-11-20T08:19:37;98341.23;;;0.10;73.71
57847;BME280;43675;50.030;21.952;2022-11-20T08:22:03;98332.70;;;0.20;73.63
57847;BME280;43675;50.030;21.952;2022-11-20T08:24:29;98337.22;;;0.27;73.55
57847;BME280;43675;50.030;21.952;2022-11-20T08:26:59;98331.95;;;0.35;73.41
57847;BME280;43675;50.030;21.952;2022-11-20T08:29:28;98329.18;;;0.41;73.26
57847;BME280;43675;50.030;21.952;2022-11-20T08:32:01;98335.66;;;0.46;73.19
57847;BME280;43675;50.030;21.952;2022-11-20T08:34:28;98326.72;;;0.47;73.03
57847;BME280;43675;50.030;21.952;2022-11-20T08:36:54;98315.02;;;0.46;72.95
57847;BME280;43675;50.030;21.952;2022-11-20T08:39:20;98328.05;;;0.47;72.86
57847;BME280;43675;50.030;21.952;2022-11-20T08:41:45;98331.86;;;0.49;72.72
57847;BME280;43675;50.030;21.952;2022-11-20T08:44:11;98326.09;;;0.50;72.62
57847;BME280;43675;50.030;21.952;2022-11-20T08:46:39;98322.29;;;0.52;72.64
57847;BME280;43675;50.030;21.952;2022-11-20T08:49:07;98328.91;;;0.56;72.63
57847;BME280;43675;50.030;21.952;2022-11-20T08:51:33;98329.60;;;0.62;72.68
57847;BME280;43675;50.030;21.952;2022-11-20T08:53:58;98333.75;;;0.73;72.73
57847;BME280;43675;50.030;21.952;2022-11-20T08:56:24;98339.56;;;0.84;72.66
57847;BME280;43675;50.030;21.952;2022-11-20T08:58:58;98336.95;;;0.97;72.54
57847;BME280;43675;50.030;21.952;2022-11-20T09:01:23;98332.03;;;1.10;72.36
57847;BME280;43675;50.030;21.952;2022-11-20T09:03:49;98325.41;;;1.22;72.29
57847;BME280;43675;50.030;21.952;2022-11-20T09:06:22;98333.34;;;1.34;72.17
57847;BME280;43675;50.030;21.952;2022-11-20T09:08:52;98335.17;;;1.46;72.09
57847;BME280;43675;50.030;21.952;2022-11-20T09:11:18;98327.08;;;1.59;71.97
57847;BME280;43675;50.030;21.952;2022-11-20T09:13:44;98325.75;;;1.71;71.83
57847;BME280;43675;50.030;21.952;2022-11-20T09:16:16;98323.74;;;1.81;71.65
57847;BME280;43675;50.030;21.952;2022-11-20T09:18:41;98328.19;;;1.93;71.59
57847;BME280;43675;50.030;21.952;2022-11-20T09:21:12;98331.48;;;2.03;71.50
57847;BME280;43675;50.030;21.952;2022-11-20T09:23:38;98330.95;;;2.12;71.48
57847;BME280;43675;50.030;21.952;2022-11-20T09:26:05;98327.14;;;2.18;71.25
57847;BME280;43675;50.030;21.952;2022-11-20T09:28:31;98326.95;;;2.20;71.15
57847;BME280;43675;50.030;21.952;2022-11-20T09:30:58;98336.06;;;2.21;71.04
57847;BME280;43675;50.030;21.952;2022-11-20T09:33:24;98325.14;;;2.20;70.98
57847;BME280;43675;50.030;21.952;2022-11-20T09:35:50;98314.39;;;2.22;70.97
57847;BME280;43675;50.030;21.952;2022-11-20T09:38:16;98313.72;;;2.20;70.96
57847;BME280;43675;50.030;21.952;2022-11-20T09:46:08;98314.73;;;2.19;71.05
57847;BME280;43675;50.030;21.952;2022-11-20T09:49:00;98318.03;;;2.17;70.99
57847;BME280;43675;50.030;21.952;2022-11-20T09:51:20;98323.20;;;2.10;70.92
57847;BME280;43675;50.030;21.952;2022-11-20T09:53:55;98334.95;;;2.08;70.99
57847;BME280;43675;50.030;21.952;2022-11-20T09:56:20;98343.05;;;2.10;71.07
57847;BME280;43675;50.030;21.952;2022-11-20T09:58:52;98341.72;;;2.14;71.12
57847;BME280;43675;50.030;21.952;2022-11-20T10:01:31;98343.36;;;2.23;71.05
57847;BME280;43675;50.030;21.952;2022-11-20T10:04:18;98343.84;;;2.27;70.69
57847;BME280;43675;50.030;21.952;2022-11-20T10:06:57;98332.91;;;2.26;70.66
57847;BME280;43675;50.030;21.952;2022-11-20T10:09:34;98328.80;;;2.23;70.56
57847;BME280;43675;50.030;21.952;2022-11-20T10:26:01;98310.53;;;1.57;70.44
57847;BME280;43675;50.030;21.952;2022-11-20T10:28:35;98317.18;;;1.45;70.48
57847;BME280;43675;50.030;21.952;2022-11-20T10:31:06;98314.20;;;1.28;70.56
57847;BME280;43675;50.030;21.952;2022-11-20T10:33:35;98306.25;;;1.20;70.61
57847;BME280;43675;50.030;21.952;2022-11-20T10:36:21;98302.95;;;1.10;70.56
57847;BME280;43675;50.030;21.952;2022-11-20T10:41:30;98315.64;;;0.86;70.66
57847;BME280;43675;50.030;21.952;2022-11-20T10:44:16;98309.66;;;0.80;70.75
57847;BME280;43675;50.030;21.952;2022-11-20T10:46:45;98314.44;;;0.72;70.81
57847;BME280;43675;50.030;21.952;2022-11-20T10:49:16;98307.31;;;0.65;70.84
57847;BME280;43675;50.030;21.952;2022-11-20T10:52:12;98300.05;;;0.59;70.81
57847;BME280;43675;50.030;21.952;2022-11-20T10:54:47;98301.34;;;0.51;70.84
57847;BME280;43675;50.030;21.952;2022-11-20T11:00:07;98297.12;;;0.32;71.03
57847;BME280;43675;50.030;21.952;2022-11-20T11:02:39;98291.67;;;0.25;71.20
57847;BME280;43675;50.030;21.952;2022-11-20T11:07:53;98271.84;;;0.17;71.61
57847;BME280;43675;50.030;21.952;2022-11-20T11:10:36;98275.15;;;0.15;71.71
57847;BME280;43675;50.030;21.952;2022-11-20T11:13:02;98272.17;;;0.14;71.78
57847;BME280;43675;50.030;21.952;2022-11-20T11:15:39;98273.14;;;0.13;71.83
57847;BME280;43675;50.030;21.952;2022-11-20T11:18:08;98267.23;;;0.15;71.85
57847;BME280;43675;50.030;21.952;2022-11-20T11:20:34;98264.89;;;0.12;71.85
57847;BME280;43675;50.030;21.952;2022-11-20T11:23:00;98264.89;;;0.12;71.92
57847;BME280;43675;50.030;21.952;2022-11-20T11:25:31;98261.29;;;0.17;72.04
57847;BME280;43675;50.030;21.952;2022-11-20T11:28:00;98256.70;;;0.23;72.18
57847;BME280;43675;50.030;21.952;2022-11-20T11:30:28;98255.08;;;0.30;72.23
57847;BME280;43675;50.030;21.952;2022-11-20T11:33:05;98266.98;;;0.38;72.31
57847;BME280;43675;50.030;21.952;2022-11-20T11:35:32;98268.98;;;0.48;72.33
57847;BME280;43675;50.030;21.952;2022-11-20T11:38:11;98272.81;;;0.58;72.27
57847;BME280;43675;50.030;21.952;2022-11-20T11:40:33;98268.53;;;0.65;72.09
57847;BME280;43675;50.030;21.952;2022-11-20T11:43:04;98260.63;;;0.73;72.10
57847;BME280;43675;50.030;21.952;2022-11-20T11:45:29;98257.82;;;0.83;72.06
57847;BME280;43675;50.030;21.952;2022-11-20T11:47:57;98249.75;;;0.92;72.01
57847;BME280;43675;50.030;21.952;2022-11-20T11:50:30;98250.41;;;1.03;71.81
57847;BME280;43675;50.030;21.952;2022-11-20T11:53:13;98248.11;;;1.12;71.65
57847;BME280;43675;50.030;21.952;2022-11-20T11:55:45;98241.34;;;1.17;71.57
57847;BME280;43675;50.030;21.952;2022-11-20T12:01:34;98225.44;;;1.33;71.54
57847;BME280;43675;50.030;21.952;2022-11-20T12:06:58;98226.94;;;1.44;71.20
57847;BME280;43675;50.030;21.952;2022-11-20T12:09:23;98230.72;;;1.46;71.05
57847;BME280;43675;50.030;21.952;2022-11-20T12:12:17;98239.97;;;1.46;70.80
57847;BME280;43675;50.030;21.952;2022-11-20T12:14:46;98241.48;;;1.44;70.77
57847;BME280;43675;50.030;21.952;2022-11-20T12:17:13;98243.64;;;1.40;70.80
57847;BME280;43675;50.030;21.952;2022-11-20T12:19:39;98246.77;;;1.44;70.78
57847;BME280;43675;50.030;21.952;2022-11-20T12:24:53;98245.44;;;1.52;70.65
57847;BME280;43675;50.030;21.952;2022-11-20T12:27:43;98252.69;;;1.58;70.63
57847;BME280;43675;50.030;21.952;2022-11-20T12:30:11;98246.74;;;1.64;70.55
57847;BME280;43675;50.030;21.952;2022-11-20T12:38:08;98239.77;;;1.75;70.07
57847;BME280;43675;50.030;21.952;2022-11-20T12:40:53;98249.52;;;1.75;70.01
57847;BME280;43675;50.030;21.952;2022-11-20T12:43:23;98241.09;;;1.75;69.94
57847;BME280;43675;50.030;21.952;2022-11-20T12:48:42;98231.66;;;1.73;69.78
57847;BME280;43675;50.030;21.952;2022-11-20T12:59:28;98228.27;;;1.44;69.84
57847;BME280;43675;50.030;21.952;2022-11-20T13:02:12;98227.93;;;1.39;69.83
57847;BME280;43675;50.030;21.952;2022-11-20T13:07:32;98227.45;;;1.23;69.97
57847;BME280;43675;50.030;21.952;2022-11-20T13:09:59;98223.49;;;1.11;70.11
57847;BME280;43675;50.030;21.952;2022-11-20T13:12:43;98220.69;;;1.05;70.20
57847;BME280;43675;50.030;21.952;2022-11-20T13:18:01;98219.70;;;0.89;70.40
57847;BME280;43675;50.030;21.952;2022-11-20T13:20:29;98219.70;;;0.85;70.65
57847;BME280;43675;50.030;21.952;2022-11-20T13:22:55;98222.34;;;0.89;70.87
57847;BME280;43675;50.030;21.952;2022-11-20T13:25:29;98217.22;;;0.96;70.88
57847;BME280;43675;50.030;21.952;2022-11-20T13:27:58;98203.03;;;1.01;70.81
57847;BME280;43675;50.030;21.952;2022-11-20T13:30:26;98204.84;;;1.05;70.86
57847;BME280;43675;50.030;21.952;2022-11-20T13:32:55;98207.82;;;1.10;70.80
57847;BME280;43675;50.030;21.952;2022-11-20T13:35:30;98200.38;;;1.13;70.80
57847;BME280;43675;50.030;21.952;2022-11-20T13:38:02;98203.02;;;1.17;70.79
57847;BME280;43675;50.030;21.952;2022-11-20T13:40:28;98196.91;;;1.21;70.74
57847;BME280;43675;50.030;21.952;2022-11-20T13:43:07;98198.87;;;1.23;70.76
57847;BME280;43675;50.030;21.952;2022-11-20T13:45:31;98201.51;;;1.27;70.75
57847;BME280;43675;50.030;21.952;2022-11-20T13:48:03;98196.55;;;1.28;70.74
57847;BME280;43675;50.030;21.952;2022-11-20T13:53:18;98184.47;;;1.33;70.65
57847;BME280;43675;50.030;21.952;2022-11-20T13:58:50;98181.03;;;1.33;70.63
57847;BME280;43675;50.030;21.952;2022-11-20T14:01:24;98170.27;;;1.30;70.60
57847;BME280;43675;50.030;21.952;2022-11-20T14:03:53;98171.45;;;1.20;70.60
57847;BME280;43675;50.030;21.952;2022-11-20T14:06:28;98170.48;;;1.13;70.60
57847;BME280;43675;50.030;21.952;2022-11-20T14:08:55;98171.63;;;1.02;70.61
57847;BME280;43675;50.030;21.952;2022-11-20T14:11:29;98161.09;;;0.90;70.68
57847;BME280;43675;50.030;21.952;2022-11-20T14:16:39;98176.45;;;0.70;70.99